Time;durP1;ratioP1;P1;durP2;ratioP2;P2;SDS_P1;SDS_P2;PMS_P1;PMS_P2;Temp;Humidity;BMP_temperature;BMP_pressure;BME280_temperature;BME280_humidity;BME280_pressure;Samples;Min_cycle;Max_cycle;Signal;HPM_P1;HPM_P2
2023/01/08 00:02:37;;;;;;;;;;;;;;;17.73;68.83;100304.26;2266058;78;51527;-75
2023/01/08 00:05:38;;;;;;;;;;;;;;;17.74;68.77;100302.41;2264367;78;51340;-75
2023/01/08 00:08:40;;;;;;;;;;;;;;;17.73;68.79;100293.55;2264111;78;50710;-75
2023/01/08 00:11:43;;;;;;;;;;;;;;;17.74;68.80;100291.70;2265806;78;49551;-76
2023/01/08 00:14:44;;;;;;;;;;;;;;;17.76;68.74;100287.00;2264237;78;51502;-75
2023/01/08 00:17:46;;;;;;;;;;;;;;;17.73;68.84;100276.67;2265886;78;50710;-76
2023/01/08 00:20:48;;;;;;;;;;;;;;;17.66;69.07;100271.22;2265937;78;50773;-76
2023/01/08 00:23:49;;;;;;;;;;;;;;;17.66;69.15;100282.44;2241587;78;52427;-76
2023/01/08 00:26:51;;;;;;;;;;;;;;;17.64;69.25;100279.42;2265816;78;51490;-76
2023/01/08 00:29:53;;;;;;;;;;;;;;;17.67;69.10;100278.73;2270959;77;51508;-76
2023/01/08 00:32:54;;;;;;;;;;;;;;;17.71;69.04;100273.34;2265171;78;50639;-76
2023/01/08 00:35:56;;;;;;;;;;;;;;;17.69;69.04;100269.51;2241018;78;51436;-76
2023/01/08 00:38:58;;;;;;;;;;;;;;;17.72;68.99;100264.30;2265790;78;50394;-76
2023/01/08 00:41:59;;;;;;;;;;;;;;;17.73;68.94;100263.30;2264213;78;51589;-78
2023/01/08 00:45:01;;;;;;;;;;;;;;;17.79;68.84;100257.19;2265990;78;51613;-78
2023/01/08 00:48:03;;;;;;;;;;;;;;;17.77;68.87;100239.96;2265754;78;50411;-75
2023/01/08 00:51:04;;;;;;;;;;;;;;;17.75;68.89;100242.50;2265989;78;50393;-75
2023/01/08 00:54:06;;;;;;;;;;;;;;;17.72;68.98;100242.88;2264609;77;50323;-76
2023/01/08 00:57:07;;;;;;;;;;;;;;;17.66;69.44;100248.48;2240998;77;50278;-77
2023/01/08 01:00:10;;;;;;;;;;;;;;;17.67;69.66;100246.63;2232634;79;50427;-76
2023/01/08 01:03:12;;;;;;;;;;;;;;;17.64;69.54;100235.28;2209920;79;52014;-76
2023/01/08 01:06:14;;;;;;;;;;;;;;;17.68;69.43;100232.25;2232623;79;51458;-76
2023/01/08 01:09:15;;;;;;;;;;;;;;;17.68;69.78;100236.27;2209719;79;49973;-76
2023/01/08 01:12:17;;;;;;;;;;;;;;;17.63;69.88;100230.95;2186294;79;49614;-76
2023/01/08 01:15:18;;;;;;;;;;;;;;;17.67;69.50;100222.03;2186456;79;51931;-76
2023/01/08 01:18:20;;;;;;;;;;;;;;;17.67;69.38;100216.69;2232548;79;50315;-76
2023/01/08 01:21:25;;;;;;;;;;;;;;;17.68;69.33;100226.91;2209832;79;50432;-76
2023/01/08 01:24:27;;;;;;;;;;;;;;;17.67;69.47;100231.40;2214228;79;50147;-76
2023/01/08 01:27:29;;;;;;;;;;;;;;;17.67;69.33;100234.08;2257195;77;50360;-77
2023/01/08 01:30:30;;;;;;;;;;;;;;;17.65;69.53;100224.09;2257175;77;50671;-77
2023/01/08 01:33:32;;;;;;;;;;;;;;;17.62;69.65;100224.44;2257548;78;50646;-77
2023/01/08 01:36:33;;;;;;;;;;;;;;;17.61;69.99;100222.28;2230914;79;50058;-76
2023/01/08 01:39:35;;;;;;;;;;;;;;;17.62;70.28;100219.95;2257224;78;51530;-77
2023/01/08 01:42:39;;;;;;;;;;;;;;;17.61;70.00;100208.91;2232785;79;50713;-77
2023/01/08 01:45:41;;;;;;;;;;;;;;;17.60;69.94;100220.63;2232723;78;51399;-77
2023/01/08 01:48:43;;;;;;;;;;;;;;;17.59;70.19;100214.94;2210373;79;51173;-77
2023/01/08 01:51:46;;;;;;;;;;;;;;;17.60;70.09;100217.95;2232561;79;52328;-76
2023/01/08 01:54:48;;;;;;;;;;;;;;;17.62;70.07;100214.59;2232334;78;54922;-76
2023/01/08 01:58:01;;;;;;;;;;;;;;;17.60;69.95;100209.94;2258355;78;50776;-76
2023/01/08 02:01:04;;;;;;;;;;;;;;;17.61;70.18;100188.84;2226315;78;52683;-77
2023/01/08 02:04:06;;;;;;;;;;;;;;;17.61;70.25;100179.48;2269744;78;51552;-77
2023/01/08 02:07:12;;;;;;;;;;;;;;;17.59;70.12;100192.72;2269832;78;51448;-76
2023/01/08 02:10:15;;;;;;;;;;;;;;;17.61;69.80;100190.17;2269964;78;51411;-77
2023/01/08 02:13:19;;;;;;;;;;;;;;;17.62;69.77;100189.18;2209215;78;50149;-77
2023/01/08 02:16:25;;;;;;;;;;;;;;;17.62;69.78;100184.31;2269797;77;50469;-77
2023/01/08 02:19:38;;;;;;;;;;;;;;;17.60;69.71;100183.18;2268970;78;50799;-76
2023/01/08 02:22:41;;;;;;;;;;;;;;;17.59;69.69;100169.47;2269721;78;50417;-76
2023/01/08 02:25:45;;;;;;;;;;;;;;;17.60;69.80;100175.16;2228072;79;49595;-76
2023/01/08 02:28:51;;;;;;;;;;;;;;;17.58;69.70;100166.48;2232440;79;51507;-76
2023/01/08 02:31:53;;;;;;;;;;;;;;;17.58;69.68;100145.08;2232862;79;50768;-76
2023/01/08 02:34:54;;;;;;;;;;;;;;;17.59;69.65;100141.89;2232738;79;51384;-76
2023/01/08 02:37:56;;;;;;;;;;;;;;;17.55;70.10;100149.47;2186560;79;51814;-76
2023/01/08 02:40:58;;;;;;;;;;;;;;;17.58;69.87;100154.95;2232597;79;51517;-76
2023/01/08 02:44:00;;;;;;;;;;;;;;;17.60;69.77;100144.39;2232817;78;50754;-76
2023/01/08 02:47:02;;;;;;;;;;;;;;;17.56;69.83;100144.44;2232591;79;51479;-76
2023/01/08 02:50:22;;;;;;;;;;;;;;;17.57;69.85;100138.08;2234171;78;49673;-76
2023/01/08 02:53:25;;;;;;;;;;;;;;;17.60;69.88;100134.20;2233606;78;50802;-76
2023/01/08 02:56:27;;;;;;;;;;;;;;;17.58;69.90;100131.70;2263281;78;50438;-76
2023/01/08 02:59:29;;;;;;;;;;;;;;;17.59;69.87;100121.31;2251199;79;51536;-76
2023/01/08 03:02:31;;;;;;;;;;;;;;;17.58;69.86;100122.86;2236819;79;51532;-76
2023/01/08 03:05:33;;;;;;;;;;;;;;;17.58;70.01;100118.33;2251269;78;50280;-76
2023/01/08 03:08:36;;;;;;;;;;;;;;;17.58;69.93;100110.81;2251025;78;51409;-76
2023/01/08 03:11:47;;;;;;;;;;;;;;;17.58;69.95;100108.97;2250998;79;50688;-76
2023/01/08 03:14:51;;;;;;;;;;;;;;;17.58;70.05;100098.78;2236626;79;52731;-76
2023/01/08 03:17:54;;;;;;;;;;;;;;;17.58;70.00;100094.25;2248320;78;51614;-76
2023/01/08 03:20:55;;;;;;;;;;;;;;;17.58;70.14;100110.30;2251160;78;50318;-77
2023/01/08 03:23:57;;;;;;;;;;;;;;;17.60;70.00;100102.92;2265375;78;50658;-76
2023/01/08 03:26:59;;;;;;;;;;;;;;;17.60;70.14;100105.59;2266753;78;51716;-76
2023/01/08 03:30:00;;;;;;;;;;;;;;;17.60;70.01;100107.45;2264624;78;50270;-76
2023/01/08 03:33:02;;;;;;;;;;;;;;;17.59;69.97;100097.75;2264331;78;50372;-76
2023/01/08 03:36:03;;;;;;;;;;;;;;;17.57;70.14;100087.26;2264166;78;50641;-76
2023/01/08 03:39:07;;;;;;;;;;;;;;;17.58;70.00;100086.74;2264159;78;50405;-76
2023/01/08 03:42:09;;;;;;;;;;;;;;;17.57;69.98;100088.59;2264389;78;50177;-76
2023/01/08 03:45:11;;;;;;;;;;;;;;;17.55;69.94;100086.61;2264729;78;51553;-76
2023/01/08 03:48:12;;;;;;;;;;;;;;;17.54;70.15;100076.91;2264593;78;51496;-76
2023/01/08 03:51:14;;;;;;;;;;;;;;;17.58;70.00;100078.72;2266301;78;51293;-76
2023/01/08 03:54:16;;;;;;;;;;;;;;;17.60;69.84;100078.84;2266097;78;50068;-76
2023/01/08 03:57:18;;;;;;;;;;;;;;;17.61;69.71;100092.53;2267557;78;51654;-76
2023/01/08 04:00:20;;;;;;;;;;;;;;;17.62;69.76;100094.69;2270287;77;51374;-76
2023/01/08 04:03:23;;;;;;;;;;;;;;;17.62;69.72;100094.69;2248244;78;52488;-76
2023/01/08 04:06:25;;;;;;;;;;;;;;;17.61;69.76;100093.87;2271642;77;50021;-76
2023/01/08 04:09:26;;;;;;;;;;;;;;;17.59;69.79;100097.23;2269840;78;50472;-75
2023/01/08 04:12:28;;;;;;;;;;;;;;;17.58;70.02;100094.25;2270653;78;50740;-77
2023/01/08 04:15:29;;;;;;;;;;;;;;;17.57;69.87;100091.27;2247809;78;50111;-75
2023/01/08 04:18:31;;;;;;;;;;;;;;;17.58;69.79;100090.23;2270735;77;51499;-75
2023/01/08 04:21:32;;;;;;;;;;;;;;;17.58;69.82;100088.90;2271023;76;53607;-76
2023/01/08 04:24:34;;;;;;;;;;;;;;;17.58;69.76;100090.23;2268036;77;51519;-76
2023/01/08 04:27:36;;;;;;;;;;;;;;;17.59;69.76;100099.91;2239186;78;51209;-75
2023/01/08 04:30:37;;;;;;;;;;;;;;;17.60;69.63;100085.53;2232222;79;50305;-75
2023/01/08 04:33:39;;;;;;;;;;;;;;;17.58;69.72;100082.73;2231964;78;50342;-75
2023/01/08 04:36:40;;;;;;;;;;;;;;;17.56;69.71;100085.58;2231869;78;50705;-75
2023/01/08 04:39:42;;;;;;;;;;;;;;;17.56;69.72;100073.55;2209114;79;52672;-75
2023/01/08 04:42:43;;;;;;;;;;;;;;;17.55;69.70;100069.23;2233245;79;50646;-75
2023/01/08 04:45:45;;;;;;;;;;;;;;;17.57;69.55;100056.49;2233388;79;51550;-75
2023/01/08 04:48:47;;;;;;;;;;;;;;;17.58;69.44;100039.92;2233402;78;52095;-75
2023/01/08 04:51:48;;;;;;;;;;;;;;;17.58;69.42;100050.11;2209292;78;51006;-75
2023/01/08 04:54:50;;;;;;;;;;;;;;;17.57;69.44;100048.95;2246672;78;50629;-75
2023/01/08 04:57:51;;;;;;;;;;;;;;;17.56;69.43;100048.64;2267435;77;51530;-75
2023/01/08 05:00:53;;;;;;;;;;;;;;;17.57;69.55;100050.29;2270595;77;51489;-75
2023/01/08 05:03:55;;;;;;;;;;;;;;;17.56;69.53;100060.69;2245484;78;52548;-75
2023/01/08 05:06:57;;;;;;;;;;;;;;;17.58;69.53;100067.50;2268818;77;51612;-76
2023/01/08 05:09:58;;;;;;;;;;;;;;;17.57;69.65;100049.80;2268924;77;50719;-75
2023/01/08 05:13:00;;;;;;;;;;;;;;;17.56;69.62;100033.42;2268962;77;51491;-75
2023/01/08 05:16:02;;;;;;;;;;;;;;;17.56;69.77;100040.63;2245638;78;50962;-76
2023/01/08 05:19:03;;;;;;;;;;;;;;;17.59;69.71;100048.26;2268880;77;51419;-75
2023/01/08 05:22:05;;;;;;;;;;;;;;;17.58;69.71;100039.41;2270721;77;51401;-75
2023/01/08 05:25:06;;;;;;;;;;;;;;;17.58;69.41;100028.71;2262397;78;50462;-75
2023/01/08 05:28:08;;;;;;;;;;;;;;;17.59;69.42;100026.34;2233118;79;51819;-75
2023/01/08 05:31:10;;;;;;;;;;;;;;;17.61;69.14;100026.98;2232016;78;50350;-75
2023/01/08 05:34:12;;;;;;;;;;;;;;;17.59;68.85;100034.37;2232066;79;52355;-75
2023/01/08 05:37:13;;;;;;;;;;;;;;;17.56;68.14;100025.39;2231928;79;51580;-75
2023/01/08 05:40:15;;;;;;;;;;;;;;;17.53;68.53;100022.28;2258393;76;52513;-75
2023/01/08 05:43:16;;;;;;;;;;;;;;;17.50;68.39;100023.50;2258485;77;51435;-75
2023/01/08 05:46:18;;;;;;;;;;;;;;;17.50;68.37;100024.02;2231910;78;50321;-75
2023/01/08 05:49:22;;;;;;;;;;;;;;;17.49;68.41;100021.81;2232153;78;51383;-75
2023/01/08 05:52:24;;;;;;;;;;;;;;;17.51;68.52;100026.47;2240902;78;51065;-75
2023/01/08 05:55:26;;;;;;;;;;;;;;;17.49;68.39;100015.65;2256809;78;51472;-75
2023/01/08 05:58:27;;;;;;;;;;;;;;;17.49;68.49;100013.80;2252690;78;51611;-76
2023/01/08 06:01:29;;;;;;;;;;;;;;;17.48;68.56;100008.14;2251182;78;51422;-75
2023/01/08 06:04:30;;;;;;;;;;;;;;;17.53;68.61;100007.58;2236975;79;51696;-75
2023/01/08 06:07:32;;;;;;;;;;;;;;;17.51;68.44;100004.26;2251054;79;50289;-75
2023/01/08 06:10:33;;;;;;;;;;;;;;;17.49;68.56;100005.77;2251166;78;50753;-75
2023/01/08 06:13:36;;;;;;;;;;;;;;;17.51;68.36;100005.59;2251272;79;51359;-75
2023/01/08 06:16:38;;;;;;;;;;;;;;;17.49;67.85;100000.42;2261751;78;49582;-75
2023/01/08 06:19:39;;;;;;;;;;;;;;;17.50;68.09;99998.09;2262040;78;50361;-75
2023/01/08 06:22:41;;;;;;;;;;;;;;;17.51;68.21;99988.20;2251399;78;50450;-75
2023/01/08 06:25:43;;;;;;;;;;;;;;;17.50;67.80;100000.76;2263809;78;50618;-75
2023/01/08 06:28:44;;;;;;;;;;;;;;;17.52;68.23;99984.50;2245751;78;50809;-75
2023/01/08 06:31:46;;;;;;;;;;;;;;;17.50;68.34;99984.71;2269345;77;51992;-75
2023/01/08 06:34:47;;;;;;;;;;;;;;;17.57;68.30;99983.41;2269443;77;51480;-75
2023/01/08 06:37:49;;;;;;;;;;;;;;;17.64;68.09;99986.98;2271015;76;51555;-73
2023/01/08 06:40:50;;;;;;;;;;;;;;;17.71;67.87;99991.88;2269404;77;52361;-73
2023/01/08 06:43:52;;;;;;;;;;;;;;;17.80;67.67;99979.21;2269623;78;50389;-73
2023/01/08 06:46:53;;;;;;;;;;;;;;;17.88;67.42;99983.11;2268938;77;50062;-75
2023/01/08 06:49:55;;;;;;;;;;;;;;;17.93;67.41;99977.14;2265452;77;50099;-75
2023/01/08 06:52:57;;;;;;;;;;;;;;;17.98;67.34;99980.06;2244069;78;49759;-75
2023/01/08 06:55:58;;;;;;;;;;;;;;;18.01;67.23;99981.86;2258359;77;51534;-76
2023/01/08 06:59:00;;;;;;;;;;;;;;;18.00;67.39;99976.69;2270937;77;51503;-74
2023/01/08 07:02:01;;;;;;;;;;;;;;;18.01;67.40;99983.72;2250169;78;50578;-76
2023/01/08 07:05:03;;;;;;;;;;;;;;;17.99;67.28;99991.93;2233416;78;51254;-76
2023/01/08 07:08:05;;;;;;;;;;;;;;;17.97;67.44;99983.26;2269353;77;51414;-75
2023/01/08 07:11:06;;;;;;;;;;;;;;;18.00;67.52;99986.05;2262137;77;53205;-74
2023/01/08 07:14:08;;;;;;;;;;;;;;;18.00;67.49;99984.72;2269416;77;50428;-77
2023/01/08 07:17:09;;;;;;;;;;;;;;;18.00;67.52;99982.05;2246008;78;49613;-76
2023/01/08 07:20:11;;;;;;;;;;;;;;;17.97;67.42;99976.56;2271446;75;50255;-76
2023/01/08 07:23:12;;;;;;;;;;;;;;;17.95;67.36;99981.28;2269591;77;50632;-75
2023/01/08 07:26:14;;;;;;;;;;;;;;;17.94;67.41;99986.33;2265342;77;50766;-75
2023/01/08 07:29:16;;;;;;;;;;;;;;;17.92;67.49;99982.20;2261965;78;52869;-74
2023/01/08 07:32:17;;;;;;;;;;;;;;;17.91;67.45;99992.08;2251367;79;50310;-75
2023/01/08 07:35:19;;;;;;;;;;;;;;;17.93;67.51;99991.38;2262438;77;50673;-76
2023/01/08 07:38:21;;;;;;;;;;;;;;;17.96;67.34;99999.02;2251237;79;51446;-74
2023/01/08 07:41:22;;;;;;;;;;;;;;;17.94;67.40;99989.52;2238901;78;51377;-78
2023/01/08 07:54:24;;;;;;;;;;;;;;;17.94;67.45;99998.89;2198914;79;22389;-73
2023/01/08 07:57:41;;;;;;;;;;;;;;;;;;;;;
2023/01/08 08:00:42;;;;;;;;;;;;;;;17.92;67.44;99989.70;2230700;78;22570;-73
2023/01/08 08:06:58;;;;;;;;;;;;;;;17.93;67.47;99985.17;2228189;77;22741;-75
2023/01/08 08:17:26;;;;;;;;;;;;;;;;;;;;;
2023/01/08 08:20:14;;;;;;;;;;;;;;;18.12;67.43;99978.32;1980237;89;22581;-74
2023/01/08 08:27:05;;;;;;;;;;;;;;;18.20;66.99;99996.91;1982449;87;23203;-74
2023/01/08 08:34:54;;;;;;;;;;;;;;;;;;;;;
2023/01/08 08:37:16;;;;;;;;;;;;;;;;;;;;;
2023/01/08 08:40:35;;;;;;;;;;;;;;;18.01;66.99;99963.12;2115641;82;22600;-73
2023/01/08 08:47:32;;;;;;;;;;;;;;;;;;;;;
2023/01/08 08:50:40;;;;;;;;;;;;;;;;;;;;;
2023/01/08 08:53:59;;;;;;;;;;;;;;;17.94;67.21;99955.55;2063322;83;23589;-74
2023/01/08 09:00:28;;;;;;;;;;;;;;;18.05;66.78;99961.69;2024866;86;22640;-74
2023/01/08 09:03:30;;;;;;;;;;;;;;;;;;;;;
2023/01/08 09:09:38;;;;;;;;;;;;;;;18.10;66.46;99942.36;2074603;85;22483;-74
2023/01/08 09:12:43;;;;;;;;;;;;;;;18.07;66.51;99934.73;2082765;83;50550;-74
2023/01/08 09:16:17;;;;;;;;;;;;;;;18.05;66.53;99934.92;2089084;85;50090;-72
2023/01/08 09:19:32;;;;;;;;;;;;;;;18.01;66.66;99917.61;2086994;84;52740;-72
2023/01/08 09:22:47;;;;;;;;;;;;;;;17.92;67.08;99900.05;2087002;83;50506;-73
2023/01/08 09:25:52;;;;;;;;;;;;;;;17.90;67.09;99913.31;2075284;83;22483;-72
2023/01/08 09:28:56;;;;;;;;;;;;;;;17.97;66.89;99928.39;2017618;86;51543;-72
2023/01/08 09:32:06;;;;;;;;;;;;;;;18.02;66.70;99932.64;2020420;85;52560;-72
2023/01/08 09:35:12;;;;;;;;;;;;;;;18.07;66.53;99942.77;2065182;81;23436;-73
2023/01/08 09:48:39;;;;;;;;;;;;;;;18.06;66.45;99952.66;2406126;73;22452;-75
2023/01/08 09:52:09;;;;;;;;;;;;;;;;;;;;;
2023/01/08 09:55:42;;;;;;;;;;;;;;;18.07;66.55;99966.86;2354684;74;23371;-74
2023/01/08 10:08:53;;;;;;;;;;;;;;;17.96;67.01;99952.17;2128874;81;22359;-74
2023/01/08 10:12:21;;;;;;;;;;;;;;;17.91;67.39;99949.25;2195280;79;50766;-75
2023/01/08 10:15:26;;;;;;;;;;;;;;;17.94;67.60;99939.48;2280561;76;22589;-75
2023/01/08 10:18:58;;;;;;;;;;;;;;;;;;;;;
2023/01/08 10:22:06;;;;;;;;;;;;;;;17.98;67.67;99926.53;2217104;78;22324;-79
2023/01/08 10:25:22;;;;;;;;;;;;;;;18.00;67.66;99919.95;2213867;80;21835;-74
2023/01/08 10:28:52;;;;;;;;;;;;;;;18.01;67.43;99915.45;2135619;81;22314;-74
2023/01/08 10:31:57;;;;;;;;;;;;;;;17.98;67.32;99926.05;2129804;82;23232;-76
2023/01/08 10:35:40;;;;;;;;;;;;;;;;;;;;;
2023/01/08 10:38:33;;;;;;;;;;;;;;;17.95;67.58;99918.38;2044327;86;22577;-75
2023/01/08 10:41:38;;;;;;;;;;;;;;;17.95;67.55;99913.03;2059369;86;50842;-76
2023/01/08 10:44:41;;;;;;;;;;;;;;;17.95;67.51;99918.38;2070225;86;50019;-76
2023/01/08 10:47:43;;;;;;;;;;;;;;;17.90;67.82;99917.33;2053349;86;50073;-75
2023/01/08 10:50:45;;;;;;;;;;;;;;;17.88;67.90;99919.36;2145677;83;50391;-74
2023/01/08 10:53:46;;;;;;;;;;;;;;;17.87;67.86;99921.22;2139706;83;50404;-74
2023/01/08 10:56:48;;;;;;;;;;;;;;;17.88;67.73;99915.34;2113298;83;50117;-75
2023/01/08 10:59:49;;;;;;;;;;;;;;;17.81;67.73;99908.63;2113023;83;50625;-74
2023/01/08 11:02:51;;;;;;;;;;;;;;;17.78;67.73;99897.78;2136183;83;51457;-74
2023/01/08 11:05:53;;;;;;;;;;;;;;;17.78;67.71;99902.31;2208846;79;49921;-74
2023/01/08 11:08:55;;;;;;;;;;;;;;;17.76;67.67;99899.81;2209378;79;50647;-77
2023/01/08 11:11:57;;;;;;;;;;;;;;;17.77;67.68;99891.27;2236223;76;51422;-76
2023/01/08 11:14:59;;;;;;;;;;;;;;;17.76;67.64;99882.42;2332154;76;50759;-76
2023/01/08 11:18:16;;;;;;;;;;;;;;;17.75;67.55;99878.59;2332397;76;50656;-75
2023/01/08 11:21:19;;;;;;;;;;;;;;;17.75;67.82;99883.95;2332223;76;51522;-75
2023/01/08 11:24:22;;;;;;;;;;;;;;;17.73;67.69;99865.95;2334380;74;51631;-75
2023/01/08 11:27:28;;;;;;;;;;;;;;;17.72;67.70;99862.94;2332313;76;51514;-76
2023/01/08 11:30:31;;;;;;;;;;;;;;;17.72;67.74;99862.94;2332375;76;50639;-76
2023/01/08 11:33:32;;;;;;;;;;;;;;;17.72;67.69;99863.76;2332032;76;50659;-75
2023/01/08 11:36:34;;;;;;;;;;;;;;;17.73;67.58;99849.89;2315438;75;52010;-76
2023/01/08 11:39:36;;;;;;;;;;;;;;;17.82;67.34;99843.38;2381074;74;51633;-75
2023/01/08 11:42:39;;;;;;;;;;;;;;;17.91;67.10;99856.10;2381017;74;50371;-76
2023/01/08 11:45:42;;;;;;;;;;;;;;;17.94;66.97;99853.84;2381350;73;50269;-77
2023/01/08 11:48:45;;;;;;;;;;;;;;;17.99;66.79;99854.59;2372908;74;51308;-75
2023/01/08 11:51:56;;;;;;;;;;;;;;;18.00;66.72;99850.36;2381063;73;50280;-76
2023/01/08 11:54:56;;;;;;;;;;;;;;;17.96;66.77;99849.13;2365558;73;22309;-73
2023/01/08 11:58:03;;;;;;;;;;;;;;;17.95;66.75;99842.09;2368040;75;51385;-73
2023/01/08 12:01:09;;;;;;;;;;;;;;;17.90;66.88;99849.89;2340965;74;52651;-76
2023/01/08 12:04:18;;;;;;;;;;;;;;;17.91;66.84;99839.52;2365979;73;51462;-76
2023/01/08 12:07:24;;;;;;;;;;;;;;;17.83;67.07;99828.98;2337107;73;50331;-76
2023/01/08 12:10:27;;;;;;;;;;;;;;;17.92;66.88;99825.11;2363858;74;50424;-76
2023/01/08 12:13:40;;;;;;;;;;;;;;;17.87;66.87;99815.51;2354122;74;51356;-77
2023/01/08 12:16:43;;;;;;;;;;;;;;;17.84;67.07;99818.59;2330551;76;51444;-76
2023/01/08 12:19:49;;;;;;;;;;;;;;;17.80;67.17;99814.16;2326883;76;51576;-75
2023/01/08 12:22:58;;;;;;;;;;;;;;;17.76;67.40;99812.03;2304927;76;50317;-76
2023/01/08 12:26:01;;;;;;;;;;;;;;;17.76;67.31;99809.36;2325487;76;51058;-76
2023/01/08 12:29:08;;;;;;;;;;;;;;;17.77;67.49;99808.33;2323600;76;51235;-77
2023/01/08 12:32:11;;;;;;;;;;;;;;;17.73;67.54;99798.54;2332073;74;51531;-76
2023/01/08 12:35:13;;;;;;;;;;;;;;;17.75;67.53;99798.33;2362151;73;51534;-76
2023/01/08 12:38:17;;;;;;;;;;;;;;;17.76;67.64;99793.30;2312435;75;52603;-76
2023/01/08 12:41:18;;;;;;;;;;;;;;;17.79;68.75;99791.56;2350506;74;50752;-77
2023/01/08 12:44:24;;;;;;;;;;;;;;;17.79;68.76;99805.80;2400047;74;51475;-77
2023/01/08 12:47:27;;;;;;;;;;;;;;;17.83;68.43;99795.54;2383259;73;50665;-75
2023/01/08 12:50:47;;;;;;;;;;;;;;;17.93;67.69;99794.66;2333134;75;50238;-77
2023/01/08 12:53:50;;;;;;;;;;;;;;;17.86;68.82;99804.50;2330158;75;51509;-75
2023/01/08 12:57:00;;;;;;;;;;;;;;;17.81;68.60;99799.73;2387199;73;51526;-76
2023/01/08 13:00:04;;;;;;;;;;;;;;;17.78;68.43;99795.28;2398484;73;51598;-76
2023/01/08 13:03:07;;;;;;;;;;;;;;;17.74;68.62;99792.16;2357072;74;50107;-77
2023/01/08 13:06:13;;;;;;;;;;;;;;;17.76;68.39;99797.31;2363759;74;51587;-76
2023/01/08 13:09:16;;;;;;;;;;;;;;;17.75;68.29;99785.80;2365383;74;50363;-75
2023/01/08 13:12:17;;;;;;;;;;;;;;;17.77;68.03;99782.91;2307471;76;50499;-76
2023/01/08 13:15:20;;;;;;;;;;;;;;;17.78;67.93;99780.56;2298862;76;51583;-77
2023/01/08 13:18:22;;;;;;;;;;;;;;;17.77;67.82;99782.91;2324953;75;50685;-76
2023/01/08 13:21:36;;;;;;;;;;;;;;;17.79;67.86;99791.56;2371568;73;51441;-76
2023/01/08 13:24:39;;;;;;;;;;;;;;;17.82;67.75;99789.86;2302153;75;51426;-77
2023/01/08 13:27:41;;;;;;;;;;;;;;;17.82;67.72;99784.50;2361059;74;52400;-77
2023/01/08 13:30:47;;;;;;;;;;;;;;;17.79;67.90;99774.17;2333382;74;50609;-77
2023/01/08 13:33:47;;;;;;;;;;;;;;;17.82;67.70;99775.95;2344718;74;22343;-77
2023/01/08 13:36:56;;;;;;;;;;;;;;;17.80;68.04;99769.16;2392004;74;51706;-78
2023/01/08 13:39:57;;;;;;;;;;;;;;;17.77;67.84;99762.31;2341148;75;49620;-78
2023/01/08 13:42:59;;;;;;;;;;;;;;;17.75;68.00;99768.41;2361545;74;50449;-76
2023/01/08 13:46:02;;;;;;;;;;;;;;;17.78;68.16;99769.86;2352998;74;50668;-78
2023/01/08 13:49:04;;;;;;;;;;;;;;;17.84;68.11;99762.39;2332446;75;50285;-77
2023/01/08 13:52:06;;;;;;;;;;;;;;;17.84;67.64;99759.72;2307337;76;51758;-77
2023/01/08 13:55:12;;;;;;;;;;;;;;;17.76;66.76;99757.19;2331304;76;51529;-76
2023/01/08 13:58:15;;;;;;;;;;;;;;;17.72;66.34;99762.09;2331275;74;51504;-75
2023/01/08 14:01:17;;;;;;;;;;;;;;;17.71;66.21;99756.44;2347377;75;51511;-77
2023/01/08 14:04:22;;;;;;;;;;;;;;;17.72;66.34;99755.92;2305583;76;52352;-77
2023/01/08 14:07:24;;;;;;;;;;;;;;;17.72;66.32;99753.24;2332653;75;51458;-77
2023/01/08 14:10:26;;;;;;;;;;;;;;;17.69;66.56;99753.65;2331724;76;50712;-77
2023/01/08 14:13:28;;;;;;;;;;;;;;;17.69;66.52;99746.95;2328563;75;50148;-77
2023/01/08 14:16:32;;;;;;;;;;;;;;;17.67;66.61;99744.98;2305310;76;49559;-77
2023/01/08 14:19:33;;;;;;;;;;;;;;;17.69;66.52;99745.62;2330584;76;51155;-76
2023/01/08 14:22:35;;;;;;;;;;;;;;;17.77;66.32;99738.75;2330007;76;51459;-77
2023/01/08 14:25:36;;;;;;;;;;;;;;;17.84;66.14;99739.64;2328694;76;51553;-76
2023/01/08 14:28:38;;;;;;;;;;;;;;;17.87;66.00;99736.56;2303086;75;49560;-76
2023/01/08 14:31:41;;;;;;;;;;;;;;;17.89;65.92;99741.20;2329044;76;50031;-77
2023/01/08 14:34:43;;;;;;;;;;;;;;;17.91;65.87;99743.17;2326804;75;50286;-77
2023/01/08 14:37:44;;;;;;;;;;;;;;;17.92;65.91;99739.98;2329905;76;50339;-76
2023/01/08 14:40:50;;;;;;;;;;;;;;;17.82;66.23;99746.52;2321553;75;51024;-76
2023/01/08 14:43:51;;;;;;;;;;;;;;;17.82;66.19;99748.38;2363170;75;50271;-77
2023/01/08 14:46:53;;;;;;;;;;;;;;;17.78;66.38;99745.77;2368113;74;50431;-76
2023/01/08 14:49:55;;;;;;;;;;;;;;;17.76;66.48;99745.14;2365895;74;50529;-77
2023/01/08 14:52:57;;;;;;;;;;;;;;;17.79;66.39;99748.27;2340444;75;51121;-77
2023/01/08 14:55:59;;;;;;;;;;;;;;;17.77;66.43;99746.27;2365687;75;50452;-77
2023/01/08 14:59:02;;;;;;;;;;;;;;;17.73;66.55;99742.87;2365640;75;50105;-76
2023/01/08 15:02:04;;;;;;;;;;;;;;;17.71;66.57;99747.59;2365404;75;50762;-77
2023/01/08 15:05:16;;;;;;;;;;;;;;;17.73;66.55;99737.52;2340415;75;49686;-76
2023/01/08 15:08:37;;;;;;;;;;;;;;;17.68;66.71;99730.61;2367833;74;50369;-77
2023/01/08 15:11:40;;;;;;;;;;;;;;;17.66;66.77;99721.95;2311349;75;51422;-76
2023/01/08 15:14:43;;;;;;;;;;;;;;;17.64;66.79;99720.80;2320002;76;51405;-77
2023/01/08 15:17:44;;;;;;;;;;;;;;;17.61;66.78;99723.36;2305784;76;51564;-77
2023/01/08 15:20:46;;;;;;;;;;;;;;;17.61;66.79;99719.86;2330659;76;50627;-77
2023/01/08 15:23:53;;;;;;;;;;;;;;;17.62;66.69;99727.70;2330600;76;50704;-75
2023/01/08 15:26:54;;;;;;;;;;;;;;;17.68;66.55;99726.59;2326561;76;51529;-76
2023/01/08 15:29:59;;;;;;;;;;;;;;;17.81;66.24;99728.01;2303842;76;49509;-75
2023/01/08 15:33:06;;;;;;;;;;;;;;;17.88;66.00;99720.83;2340608;74;22358;-76
2023/01/08 15:36:07;;;;;;;;;;;;;;;17.94;65.83;99728.05;2324886;74;50432;-75
2023/01/08 15:39:09;;;;;;;;;;;;;;;17.97;65.69;99731.66;2360697;74;50823;-76
2023/01/08 15:45:32;;;;;;;;;;;;;;;17.97;65.65;99727.64;2373578;74;22243;-76
2023/01/08 15:48:33;;;;;;;;;;;;;;;17.94;65.71;99722.70;2365884;74;51423;-75
2023/01/08 15:51:35;;;;;;;;;;;;;;;17.94;65.73;99727.23;2344389;74;51493;-77
2023/01/08 15:54:36;;;;;;;;;;;;;;;17.93;65.74;99731.77;2295980;76;52496;-76
2023/01/08 15:57:38;;;;;;;;;;;;;;;17.90;65.80;99736.16;2317707;74;51563;-78
2023/01/08 16:00:40;;;;;;;;;;;;;;;17.90;66.02;99739.34;2364154;74;51463;-81
2023/01/08 16:03:42;;;;;;;;;;;;;;;17.82;66.47;99736.34;2363182;75;50763;-80
2023/01/08 16:06:43;;;;;;;;;;;;;;;17.76;66.59;99737.11;2361531;73;50421;-81
2023/01/08 16:09:45;;;;;;;;;;;;;;;17.72;66.68;99730.50;2359521;74;50525;-77
2023/01/08 16:12:46;;;;;;;;;;;;;;;17.71;66.87;99736.89;2374722;74;50613;-77
2023/01/08 16:15:48;;;;;;;;;;;;;;;17.70;66.90;99733.39;2396153;74;51523;-78
2023/01/08 16:18:51;;;;;;;;;;;;;;;17.69;66.87;99732.24;2372789;74;51629;-77
2023/01/08 16:21:52;;;;;;;;;;;;;;;17.68;66.96;99746.66;2395939;74;50354;-77
2023/01/08 16:24:54;;;;;;;;;;;;;;;17.66;66.90;99737.48;2401443;73;49247;-79
2023/01/08 16:27:56;;;;;;;;;;;;;;;17.66;66.95;99735.33;2402002;74;50663;-77
2023/01/08 16:30:57;;;;;;;;;;;;;;;17.66;67.12;99724.10;2354632;74;51794;-77
2023/01/08 16:34:02;;;;;;;;;;;;;;;17.73;66.98;99728.16;2330332;75;50231;-77
2023/01/08 16:37:04;;;;;;;;;;;;;;;17.78;66.88;99725.70;2331958;76;51506;-77
2023/01/08 16:40:06;;;;;;;;;;;;;;;17.83;66.62;99724.63;2340393;74;51500;-78
2023/01/08 16:43:07;;;;;;;;;;;;;;;17.86;66.42;99716.71;2343841;74;51289;-77
2023/01/08 16:46:10;;;;;;;;;;;;;;;17.87;66.33;99719.16;2395946;74;50278;-77
2023/01/08 16:49:12;;;;;;;;;;;;;;;17.86;66.27;99708.68;2395889;73;50441;-77
2023/01/08 16:52:14;;;;;;;;;;;;;;;17.84;66.26;99721.73;2395924;74;51456;-77
2023/01/08 16:55:15;;;;;;;;;;;;;;;17.81;66.30;99718.64;2372277;74;52664;-76
2023/01/08 16:58:17;;;;;;;;;;;;;;;17.78;66.36;99703.78;2392054;74;50284;-76
2023/01/08 17:01:18;;;;;;;;;;;;;;;17.74;66.47;99705.20;2369747;74;50715;-75
2023/01/08 17:04:20;;;;;;;;;;;;;;;17.70;66.98;99698.61;2369746;74;50081;-76
2023/01/08 17:07:22;;;;;;;;;;;;;;;17.73;66.59;99688.02;2345698;75;50224;-76